Time;durP1;ratioP1;P1;durP2;ratioP2;P2;SDS_P1;SDS_P2;PMS_P1;PMS_P2;Temp;Humidity;BMP_temperature;BMP_pressure;BME280_temperature;BME280_humidity;BME280_pressure;Samples;Min_cycle;Max_cycle;Signal;HPM_P1;HPM_P2
2022/01/26 00:10:40;;;;;;;;;;;;;;;29.55;16.25;101543.06;4792899;29;1088;-40
2022/01/26 00:19:43;;;;;;;;;;;;;;;29.60;16.13;101538.00;4778034;30;1160;-38
2022/01/26 00:29:18;;;;;;;;;;;;;;;29.68;15.94;101526.22;4731838;29;1235;-39
2022/01/26 00:33:06;;;;;;;;;;;;;;;29.48;16.25;101529.41;4774996;29;1198;-38
2022/01/26 00:42:48;;;;;;;;;;;;;;;29.97;15.60;101523.78;5058542;28;656;-39
2022/01/26 00:45:13;;;;;;;;;;;;;;;30.01;15.72;101519.69;5058003;28;873;-41
2022/01/26 00:47:38;;;;;;;;;;;;;;;29.72;15.82;101519.44;5058069;28;813;-40
2022/01/26 00:50:07;;;;;;;;;;;;;;;30.00;15.77;101512.56;5058278;28;805;-39
2022/01/26 00:52:39;;;;;;;;;;;;;;;30.10;15.76;101520.44;5058620;28;790;-39
2022/01/26 00:55:05;;;;;;;;;;;;;;;29.91;15.99;101507.22;5057324;28;1911;-39
2022/01/26 00:57:30;;;;;;;;;;;;;;;30.16;15.79;101508.88;5058363;28;774;-39
2022/01/26 00:59:58;;;;;;;;;;;;;;;30.11;15.68;101520.28;5058130;28;805;-39
2022/01/26 01:02:23;;;;;;;;;;;;;;;30.25;15.73;101515.91;5057918;28;800;-36
2022/01/26 01:04:48;;;;;;;;;;;;;;;29.95;15.79;101513.13;5057961;28;823;-38
2022/01/26 01:07:18;;;;;;;;;;;;;;;29.82;16.15;101511.03;5058224;28;746;-38
2022/01/26 01:09:44;;;;;;;;;;;;;;;30.11;15.75;101504.00;5057625;28;849;-38
2022/01/26 01:12:10;;;;;;;;;;;;;;;30.10;15.43;101502.28;5055497;28;1001;-38
2022/01/26 01:14:37;;;;;;;;;;;;;;;29.99;15.67;101505.47;5058289;28;809;-39
2022/01/26 01:17:04;;;;;;;;;;;;;;;30.18;15.70;101501.34;5057294;28;1960;-38
2022/01/26 01:19:36;;;;;;;;;;;;;;;30.21;15.79;101505.63;5058005;28;1033;-40
2022/01/26 01:30:01;;;;;;;;;;;;;;;30.41;15.59;101500.47;5057774;28;652;-39
2022/01/26 01:32:35;;;;;;;;;;;;;;;30.30;15.48;101501.78;5057121;28;865;-38
2022/01/26 01:35:00;;;;;;;;;;;;;;;30.71;15.17;101488.75;5057863;28;1914;-39
2022/01/26 01:37:26;;;;;;;;;;;;;;;30.50;15.37;101490.34;5057261;28;829;-38
2022/01/26 01:39:51;;;;;;;;;;;;;;;30.16;15.72;101496.13;5056537;28;872;-38
2022/01/26 01:42:16;;;;;;;;;;;;;;;30.38;15.63;101490.81;5057529;28;813;-39
2022/01/26 01:44:42;;;;;;;;;;;;;;;30.01;15.99;101487.97;5057532;28;795;-40
2022/01/26 01:47:07;;;;;;;;;;;;;;;30.04;15.88;101486.75;5056997;28;865;-40
2022/01/26 01:49:33;;;;;;;;;;;;;;;30.32;15.59;101486.16;5057521;28;802;-38
2022/01/26 01:52:02;;;;;;;;;;;;;;;30.54;15.44;101481.66;5057012;28;776;-40
2022/01/26 01:54:27;;;;;;;;;;;;;;;30.48;15.57;101484.28;5056494;28;888;-39
2022/01/26 01:56:56;;;;;;;;;;;;;;;30.27;15.66;101483.16;5057129;28;1902;-39
2022/01/26 01:59:21;;;;;;;;;;;;;;;30.50;15.54;101477.63;5057392;28;820;-39
2022/01/26 02:01:47;;;;;;;;;;;;;;;30.57;15.41;101479.56;5056716;28;958;-40
2022/01/26 02:04:12;;;;;;;;;;;;;;;30.46;15.42;101472.78;5055659;28;821;-40
2022/01/26 02:06:37;;;;;;;;;;;;;;;30.31;15.54;101469.03;5057085;28;809;-38
2022/01/26 02:09:03;;;;;;;;;;;;;;;30.30;15.57;101474.63;5055080;28;936;-39
2022/01/26 02:11:28;;;;;;;;;;;;;;;30.22;15.46;101477.44;5056333;28;809;-38
2022/01/26 02:14:03;;;;;;;;;;;;;;;30.41;15.31;101474.16;5056958;28;1140;-39
2022/01/26 02:16:42;;;;;;;;;;;;;;;30.57;15.38;101466.84;5053866;28;1898;-39
2022/01/26 03:02:25;;;;;;;;;;;;;;;29.06;16.42;101456.50;5032486;28;1127;-40
2022/01/26 03:04:53;;;;;;;;;;;;;;;28.99;16.74;101463.69;5056216;28;838;-41
2022/01/26 03:07:26;;;;;;;;;;;;;;;28.80;16.74;101454.09;5053592;28;805;-40
2022/01/26 03:12:50;;;;;;;;;;;;;;;28.60;17.17;101458.09;5028663;28;1191;-40
2022/01/26 03:15:24;;;;;;;;;;;;;;;28.47;17.37;101452.41;5055567;28;1901;-37
2022/01/26 03:18:20;;;;;;;;;;;;;;;28.61;17.20;101450.84;5055729;28;756;-39
2022/01/26 03:20:46;;;;;;;;;;;;;;;28.88;16.98;101447.81;5055331;28;1313;-41
2022/01/26 03:36:13;;;;;;;;;;;;;;;29.68;16.16;101445.75;5056070;28;1901;-39
2022/01/26 03:38:43;;;;;;;;;;;;;;;29.63;16.18;101442.72;5055466;28;781;-40
2022/01/26 03:41:22;;;;;;;;;;;;;;;29.43;16.22;101445.91;5055261;28;1018;-39
2022/01/26 03:43:47;;;;;;;;;;;;;;;29.90;15.90;101442.31;5056091;28;861;-39
2022/01/26 03:46:13;;;;;;;;;;;;;;;29.66;16.27;101445.06;5050150;28;852;-40
2022/01/26 03:48:38;;;;;;;;;;;;;;;29.85;16.25;101440.16;5055211;28;919;-40
2022/01/26 03:51:03;;;;;;;;;;;;;;;30.05;16.00;101437.75;5055293;28;830;-39
2022/01/26 03:53:28;;;;;;;;;;;;;;;29.98;16.10;101434.09;5055297;28;828;-39
2022/01/26 03:55:54;;;;;;;;;;;;;;;29.87;16.28;101434.53;5054545;28;1909;-39
2022/01/26 03:58:19;;;;;;;;;;;;;;;29.57;16.39;101438.03;5053817;28;869;-39
2022/01/26 04:00:44;;;;;;;;;;;;;;;29.55;16.40;101440.06;5055221;28;890;-39
2022/01/26 04:03:10;;;;;;;;;;;;;;;29.84;16.35;101434.91;5055212;28;888;-41
2022/01/26 04:05:35;;;;;;;;;;;;;;;29.77;16.29;101432.09;5055697;28;882;-39
2022/01/26 04:08:07;;;;;;;;;;;;;;;29.75;16.36;101431.44;5056367;28;825;-41
2022/01/26 04:10:46;;;;;;;;;;;;;;;29.74;16.14;101429.75;5058138;28;1005;-39
2022/01/26 04:13:12;;;;;;;;;;;;;;;29.87;16.07;101434.53;5059288;28;800;-39
2022/01/26 04:15:38;;;;;;;;;;;;;;;29.85;16.13;101429.31;5059082;28;1898;-39
2022/01/26 04:18:06;;;;;;;;;;;;;;;29.98;16.03;101425.13;5059167;28;1070;-39
2022/01/26 04:20:36;;;;;;;;;;;;;;;29.82;16.34;101435.09;5059004;28;1170;-39
2022/01/26 04:23:11;;;;;;;;;;;;;;;29.64;16.29;101424.59;5058773;28;797;-39
2022/01/26 04:25:38;;;;;;;;;;;;;;;29.66;16.11;101426.09;5057803;28;974;-41
2022/01/26 04:28:08;;;;;;;;;;;;;;;29.82;15.89;101427.81;5059400;28;820;-38
2022/01/26 04:30:33;;;;;;;;;;;;;;;29.83;15.95;101417.78;5041134;28;862;-39
2022/01/26 04:33:03;;;;;;;;;;;;;;;29.87;15.97;101420.97;5058541;28;973;-40
2022/01/26 04:35:28;;;;;;;;;;;;;;;28.00;11.90;101417.00;5059227;28;1969;-38
2022/01/26 04:40:35;;;;;;;;;;;;;;;27.06;11.56;101408.22;5057803;28;675;-38
2022/01/26 04:43:05;;;;;;;;;;;;;;;26.84;11.65;101405.13;5058323;28;861;-38
2022/01/26 04:45:31;;;;;;;;;;;;;;;26.44;10.84;101402.16;5058191;28;960;-38
2022/01/26 04:47:56;;;;;;;;;;;;;;;26.32;11.58;101408.81;5058838;28;955;-37
2022/01/26 04:50:21;;;;;;;;;;;;;;;26.02;11.17;101411.88;5058054;28;833;-40
2022/01/26 04:52:46;;;;;;;;;;;;;;;25.97;12.57;101404.25;5058320;28;873;-39
2022/01/26 04:55:12;;;;;;;;;;;;;;;26.24;13.92;101415.84;5053861;28;1957;-41
2022/01/26 04:57:38;;;;;;;;;;;;;;;27.18;14.85;101416.88;5058632;28;786;-40
2022/01/26 05:00:04;;;;;;;;;;;;;;;27.62;15.12;101414.84;5057662;28;1350;-41
2022/01/26 05:02:29;;;;;;;;;;;;;;;27.80;15.25;101420.09;5057879;28;1422;-40
2022/01/26 05:04:55;;;;;;;;;;;;;;;27.89;15.30;101420.94;5057799;28;1415;-41
2022/01/26 05:07:20;;;;;;;;;;;;;;;28.08;15.03;101419.69;5057756;28;1367;-39
2022/01/26 05:09:45;;;;;;;;;;;;;;;28.64;14.63;101418.00;5057856;28;1151;-41
2022/01/26 05:12:13;;;;;;;;;;;;;;;28.60;14.80;101427.47;5057950;28;1240;-41
2022/01/26 05:14:40;;;;;;;;;;;;;;;28.64;14.95;101420.69;5056679;28;1269;-41
2022/01/26 05:17:06;;;;;;;;;;;;;;;28.54;15.15;101415.50;5058222;28;1883;-42
2022/01/26 05:19:32;;;;;;;;;;;;;;;28.54;15.08;101418.22;5057011;28;1489;-42
2022/01/26 05:21:58;;;;;;;;;;;;;;;28.72;15.19;101411.69;5044807;28;825;-41
2022/01/26 05:24:23;;;;;;;;;;;;;;;28.90;14.92;101419.53;5038415;28;850;-41
2022/01/26 05:26:48;;;;;;;;;;;;;;;28.95;15.24;101413.56;5030810;28;1419;-42
2022/01/26 05:29:14;;;;;;;;;;;;;;;29.24;14.88;101419.31;5035825;28;1316;-42
2022/01/26 05:31:39;;;;;;;;;;;;;;;29.38;15.03;101418.53;5028702;28;1386;-41
2022/01/26 05:34:04;;;;;;;;;;;;;;;29.54;14.84;101422.97;5034629;28;1356;-41
2022/01/26 05:36:30;;;;;;;;;;;;;;;29.61;14.82;101420.41;5034167;28;1963;-41
2022/01/26 05:38:55;;;;;;;;;;;;;;;29.82;14.58;101418.84;5029258;28;932;-41
2022/01/26 05:41:20;;;;;;;;;;;;;;;29.90;14.76;101421.47;5043255;28;849;-41
2022/01/26 05:43:46;;;;;;;;;;;;;;;29.18;15.35;101412.75;5045532;28;1368;-41
2022/01/26 05:46:18;;;;;;;;;;;;;;;28.90;15.43;101421.38;5027168;28;1257;-41
2022/01/26 05:48:45;;;;;;;;;;;;;;;29.32;15.31;101422.81;5028602;28;1487;-41
2022/01/26 05:51:11;;;;;;;;;;;;;;;29.55;15.05;101424.66;5026876;28;1270;-41
2022/01/26 05:53:37;;;;;;;;;;;;;;;29.62;15.03;101421.22;5035834;28;1162;-41
2022/01/26 05:56:02;;;;;;;;;;;;;;;29.75;14.95;101428.72;5032581;28;1902;-42
2022/01/26 05:58:27;;;;;;;;;;;;;;;29.72;15.17;101423.69;5043315;28;807;-41
2022/01/26 06:00:53;;;;;;;;;;;;;;;29.65;15.13;101435.25;5043076;28;1450;-41
2022/01/26 06:03:18;;;;;;;;;;;;;;;29.94;14.93;101432.78;5056219;28;840;-41
2022/01/26 06:05:43;;;;;;;;;;;;;;;29.98;14.91;101436.78;5054456;28;919;-41
2022/01/26 06:08:09;;;;;;;;;;;;;;;30.03;15.01;101438.97;5057512;28;766;-41
2022/01/26 06:10:34;;;;;;;;;;;;;;;30.81;14.20;101436.88;5043408;28;1281;-41
2022/01/26 06:12:59;;;;;;;;;;;;;;;30.28;14.69;101444.16;5034092;28;1403;-41
2022/01/26 06:15:25;;;;;;;;;;;;;;;29.78;14.99;101434.63;5044460;28;1894;-41
2022/01/26 06:17:50;;;;;;;;;;;;;;;29.31;15.65;101445.50;5047209;28;942;-40
2022/01/26 06:20:15;;;;;;;;;;;;;;;29.42;15.69;101433.41;5047255;28;1176;-41
2022/01/26 06:22:40;;;;;;;;;;;;;;;29.73;15.08;101428.09;5056725;28;1177;-41
2022/01/26 06:25:07;;;;;;;;;;;;;;;29.80;15.33;101442.56;5056878;28;897;-40
2022/01/26 06:27:33;;;;;;;;;;;;;;;29.90;15.33;101440.44;5056748;28;766;-41
2022/01/26 06:29:58;;;;;;;;;;;;;;;29.99;15.11;101434.94;5056339;28;844;-41
2022/01/26 06:32:23;;;;;;;;;;;;;;;29.96;14.65;101444.31;5050810;28;1541;-41
2022/01/26 06:34:49;;;;;;;;;;;;;;;29.62;14.80;101437.50;5056505;28;841;-41
2022/01/26 06:37:14;;;;;;;;;;;;;;;29.72;15.08;101434.53;5052408;28;1906;-40
2022/01/26 06:39:40;;;;;;;;;;;;;;;30.00;14.98;101433.91;5054517;28;1544;-42
2022/01/26 06:42:11;;;;;;;;;;;;;;;30.05;15.21;101426.03;5055563;28;1493;-39
2022/01/26 06:44:47;;;;;;;;;;;;;;;29.88;15.40;101423.50;5053215;28;785;-41
2022/01/26 06:49:37;;;;;;;;;;;;;;;30.01;15.35;101435.59;5055581;28;818;-42
2022/01/26 06:52:03;;;;;;;;;;;;;;;29.18;16.16;101427.16;5055713;28;1565;-42
2022/01/26 06:54:28;;;;;;;;;;;;;;;28.96;16.45;101429.63;5055965;28;1181;-42
2022/01/26 06:56:53;;;;;;;;;;;;;;;30.04;15.64;101427.94;5054704;28;1898;-43
2022/01/26 06:59:21;;;;;;;;;;;;;;;29.00;15.99;101429.31;5055108;28;1104;-43
2022/01/26 07:01:46;;;;;;;;;;;;;;;28.65;16.52;101430.50;5063924;28;1105;-43
2022/01/26 07:04:11;;;;;;;;;;;;;;;28.59;16.50;101417.69;5055901;28;821;-41
2022/01/26 07:06:37;;;;;;;;;;;;;;;28.54;17.02;101425.47;5055852;28;888;-43
2022/01/26 07:09:02;;;;;;;;;;;;;;;28.37;16.65;101420.13;5053925;28;1343;-43
2022/01/26 07:11:28;;;;;;;;;;;;;;;28.34;16.85;101415.91;5054797;28;915;-43
2022/01/26 07:13:54;;;;;;;;;;;;;;;28.17;16.89;101416.97;5055951;28;1398;-43
2022/01/26 07:21:47;;;;;;;;;;;;;;;28.27;17.09;101411.34;5052092;28;734;-43
2022/01/26 07:24:12;;;;;;;;;;;;;;;28.49;17.16;101412.47;5052086;28;884;-43
2022/01/26 07:26:38;;;;;;;;;;;;;;;28.90;16.74;101413.25;5041308;28;1243;-44
2022/01/26 07:29:07;;;;;;;;;;;;;;;29.15;16.35;101405.00;5052727;28;1199;-44
2022/01/26 07:31:34;;;;;;;;;;;;;;;29.38;16.27;101404.97;5054477;28;1180;-43
2022/01/26 07:33:59;;;;;;;;;;;;;;;29.30;16.26;101407.75;5054412;28;1456;-43
2022/01/26 07:36:25;;;;;;;;;;;;;;;29.21;16.75;101405.09;5036450;28;1977;-42
2022/01/26 07:38:52;;;;;;;;;;;;;;;29.38;16.34;101401.44;5056043;28;1365;-43
2022/01/26 07:41:17;;;;;;;;;;;;;;;29.24;16.58;101403.06;5053545;28;955;-43
2022/01/26 07:43:43;;;;;;;;;;;;;;;29.06;16.93;101399.63;5059356;28;774;-43
2022/01/26 07:46:08;;;;;;;;;;;;;;;29.34;16.62;101403.66;5057494;28;1339;-44
2022/01/26 07:48:34;;;;;;;;;;;;;;;29.41;16.79;101407.31;5057698;28;1463;-43
2022/01/26 07:50:59;;;;;;;;;;;;;;;29.23;17.03;101401.38;5059367;28;1352;-44
2022/01/26 07:53:25;;;;;;;;;;;;;;;29.81;16.49;101407.13;5059661;28;1588;-43
2022/01/26 07:55:50;;;;;;;;;;;;;;;29.69;16.38;101400.50;5057811;28;1952;-43
2022/01/26 07:58:17;;;;;;;;;;;;;;;29.57;15.80;101397.34;5058555;28;1185;-44
2022/01/26 08:00:42;;;;;;;;;;;;;;;29.53;16.33;101396.06;5056939;28;1054;-44
2022/01/26 08:03:07;;;;;;;;;;;;;;;28.89;16.30;101287.88;5059301;28;1117;-44
2022/01/26 08:05:33;;;;;;;;;;;;;;;28.75;16.87;101405.91;5059408;28;1258;-43
2022/01/26 08:07:58;;;;;;;;;;;;;;;28.69;17.31;101402.06;5059110;28;1172;-43
2022/01/26 08:10:23;;;;;;;;;;;;;;;28.98;16.90;101412.41;5058414;28;1069;-44
2022/01/26 08:12:49;;;;;;;;;;;;;;;29.22;16.79;101411.38;5058809;28;1245;-43
2022/01/26 08:15:14;;;;;;;;;;;;;;;29.26;16.63;101417.28;5059113;28;1905;-42
2022/01/26 08:17:40;;;;;;;;;;;;;;;29.41;16.61;101412.72;5059508;28;894;-40
2022/01/26 08:20:07;;;;;;;;;;;;;;;29.54;16.92;101422.97;5059194;28;1130;-40
2022/01/26 08:22:33;;;;;;;;;;;;;;;29.81;16.62;101423.41;5059363;28;810;-40
2022/01/26 08:24:58;;;;;;;;;;;;;;;29.59;16.80;101417.03;5058923;28;938;-44
2022/01/26 08:27:26;;;;;;;;;;;;;;;29.61;16.89;101409.56;5057949;28;947;-44
2022/01/26 08:29:57;;;;;;;;;;;;;;;29.64;16.69;101411.91;5059277;28;1208;-44
2022/01/26 08:32:23;;;;;;;;;;;;;;;29.64;16.99;101411.91;5055276;28;1148;-43
2022/01/26 08:34:48;;;;;;;;;;;;;;;29.72;16.89;101412.81;5057979;28;1180;-43
2022/01/26 08:37:13;;;;;;;;;;;;;;;29.63;16.78;101409.38;5057359;28;1902;-44
2022/01/26 08:39:39;;;;;;;;;;;;;;;29.76;16.54;101411.44;5058964;28;1219;-44
2022/01/26 08:42:05;;;;;;;;;;;;;;;29.63;15.41;101410.19;5056777;28;1537;-44
2022/01/26 08:44:31;;;;;;;;;;;;;;;29.41;15.07;101393.75;5053364;28;1734;-43
2022/01/26 08:46:56;;;;;;;;;;;;;;;29.51;14.96;101395.38;5057197;28;1133;-44
2022/01/26 08:49:22;;;;;;;;;;;;;;;29.62;15.43;101391.41;5058226;28;1387;-44
2022/01/26 08:51:49;;;;;;;;;;;;;;;29.62;15.48;101394.13;5058201;28;1198;-44
2022/01/26 08:54:14;;;;;;;;;;;;;;;29.89;15.04;101389.09;5055082;28;1332;-45
2022/01/26 08:56:39;;;;;;;;;;;;;;;29.68;15.65;101380.66;5058353;28;1906;-43
2022/01/26 08:59:05;;;;;;;;;;;;;;;29.84;15.75;101389.66;5057197;28;1195;-44
2022/01/26 09:01:30;;;;;;;;;;;;;;;29.85;15.68;101379.63;5052191;28;924;-44
2022/01/26 09:03:55;;;;;;;;;;;;;;;29.79;15.78;101379.38;5057800;28;809;-43
2022/01/26 09:06:21;;;;;;;;;;;;;;;29.84;15.75;101369.81;5058586;28;860;-43
2022/01/26 09:08:51;;;;;;;;;;;;;;;29.72;15.71;101370.28;5058232;28;934;-42
2022/01/26 09:11:21;;;;;;;;;;;;;;;29.62;15.88;101369.72;5057292;28;1025;-41
2022/01/26 09:13:51;;;;;;;;;;;;;;;29.85;15.94;101371.50;5040086;28;834;-42
2022/01/26 09:16:18;;;;;;;;;;;;;;;29.86;15.96;101374.06;5057365;28;1898;-42
2022/01/26 09:18:50;;;;;;;;;;;;;;;29.85;16.13;101375.06;5053877;28;948;-42
2022/01/26 09:21:15;;;;;;;;;;;;;;;29.64;16.15;101367.66;5051451;28;1069;-42
2022/01/26 09:23:41;;;;;;;;;;;;;;;29.97;15.67;101370.03;5046030;28;837;-41
2022/01/26 09:26:06;;;;;;;;;;;;;;;29.82;16.02;101367.31;5038593;28;1249;-43
2022/01/26 09:28:31;;;;;;;;;;;;;;;29.89;16.03;101373.69;5027438;28;1408;-44
2022/01/26 09:30:57;;;;;;;;;;;;;;;29.84;15.69;101372.53;5034432;28;1351;-46
2022/01/26 09:33:23;;;;;;;;;;;;;;;29.70;15.71;101365.06;5033307;28;1387;-46
2022/01/26 09:35:48;;;;;;;;;;;;;;;29.97;15.40;101355.59;5032070;28;1902;-43
2022/01/26 09:38:14;;;;;;;;;;;;;;;30.01;14.52;101367.78;5042909;28;1403;-42
2022/01/26 09:40:39;;;;;;;;;;;;;;;28.47;11.76;101361.25;5033903;28;739;-41
2022/01/26 09:43:04;;;;;;;;;;;;;;;27.62;11.35;101358.94;5031575;28;880;-40
2022/01/26 09:45:34;;;;;;;;;;;;;;;27.28;11.81;101359.97;5052662;28;877;-41
2022/01/26 09:47:59;;;;;;;;;;;;;;;26.96;12.57;101359.75;5038908;28;896;-40
2022/01/26 09:50:25;;;;;;;;;;;;;;;26.68;12.25;101356.50;5056580;28;829;-41
2022/01/26 09:52:53;;;;;;;;;;;;;;;26.21;11.68;101350.63;5057131;28;726;-40
2022/01/26 09:55:18;;;;;;;;;;;;;;;25.97;11.30;101347.66;5044766;28;1894;-41
2022/01/26 09:57:44;;;;;;;;;;;;;;;25.68;10.98;101344.28;5037424;28;853;-41
2022/01/26 10:00:10;;;;;;;;;;;;;;;25.58;11.23;101339.94;5037660;28;951;-42
2022/01/26 10:02:35;;;;;;;;;;;;;;;25.23;11.50;101339.88;5019835;28;800;-38
2022/01/26 10:05:08;;;;;;;;;;;;;;;24.98;11.26;101326.19;5037125;28;871;-41
2022/01/26 10:15:29;;;;;;;;;;;;;;;24.15;11.59;101324.28;5056707;28;1985;-41
2022/01/26 10:18:24;;;;;;;;;;;;;;;23.94;13.14;101319.97;5039888;28;1176;-42
2022/01/26 10:20:49;;;;;;;;;;;;;;;23.97;13.02;101310.78;5026193;28;1330;-42
2022/01/26 10:23:17;;;;;;;;;;;;;;;23.98;13.12;101299.03;5056682;28;847;-41
2022/01/26 10:25:43;;;;;;;;;;;;;;;24.01;13.17;101301.41;5056395;28;920;-42
2022/01/26 10:28:13;;;;;;;;;;;;;;;23.88;12.80;101298.22;5053572;28;1746;-42
2022/01/26 10:30:42;;;;;;;;;;;;;;;23.85;13.58;101297.53;5053922;28;1331;-42
2022/01/26 10:33:10;;;;;;;;;;;;;;;23.78;13.31;101296.41;5055536;28;1344;-41
2022/01/26 10:35:35;;;;;;;;;;;;;;;23.78;13.48;101296.41;5055132;28;1978;-42
2022/01/26 10:38:00;;;;;;;;;;;;;;;23.97;13.39;101289.28;5054053;28;1100;-41
2022/01/26 10:40:27;;;;;;;;;;;;;;;24.17;13.65;101279.28;5056611;28;1124;-42
2022/01/26 10:43:13;;;;;;;;;;;;;;;24.34;13.38;101287.53;5056495;28;987;-42
2022/01/26 10:45:48;;;;;;;;;;;;;;;24.54;13.21;101280.19;5055237;28;844;-41
2022/01/26 10:53:45;;;;;;;;;;;;;;;24.70;13.05;101278.66;5056182;28;774;-42
2022/01/26 10:56:10;;;;;;;;;;;;;;;24.55;12.90;101281.91;5055588;28;1965;-42
2022/01/26 10:58:36;;;;;;;;;;;;;;;23.83;12.45;101285.22;5055693;28;819;-42
2022/01/26 11:01:01;;;;;;;;;;;;;;;22.78;12.92;101276.06;5055299;28;989;-42
2022/01/26 11:03:27;;;;;;;;;;;;;;;22.70;13.54;101274.09;5056405;28;773;-42
2022/01/26 11:05:52;;;;;;;;;;;;;;;24.52;15.35;101263.38;5056177;28;761;-42
2022/01/26 11:08:17;;;;;;;;;;;;;;;25.39;15.27;101267.28;5055762;28;817;-43
2022/01/26 11:10:44;;;;;;;;;;;;;;;25.65;15.47;101271.00;5054896;28;923;-42
2022/01/26 11:13:09;;;;;;;;;;;;;;;25.62;15.56;101279.38;5056134;28;953;-43
2022/01/26 11:15:35;;;;;;;;;;;;;;;25.84;16.17;101272.59;5056082;28;1902;-42
2022/01/26 11:18:07;;;;;;;;;;;;;;;25.91;15.86;101270.09;5037510;28;820;-42
2022/01/26 11:20:44;;;;;;;;;;;;;;;25.84;15.79;101269.91;5055491;28;1037;-42
2022/01/26 11:23:09;;;;;;;;;;;;;;;22.55;12.87;101259.38;5053474;28;1375;-42
2022/01/26 11:25:42;;;;;;;;;;;;;;;21.74;12.50;101268.13;5030104;28;1312;-42
2022/01/26 11:28:19;;;;;;;;;;;;;;;20.94;13.25;101265.13;5054476;28;1279;-41
2022/01/26 11:30:44;;;;;;;;;;;;;;;20.83;13.37;101250.78;5054450;28;1161;-40
2022/01/26 11:33:20;;;;;;;;;;;;;;;22.03;15.23;101255.88;5053971;28;1486;-43
2022/01/26 11:35:48;;;;;;;;;;;;;;;22.50;16.30;101259.78;5055647;28;1906;-44
2022/01/26 11:46:57;;;;;;;;;;;;;;;23.62;17.77;101247.84;5053640;28;1000;-42
2022/01/26 11:49:24;;;;;;;;;;;;;;;23.65;17.60;101239.50;5057624;28;1227;-42
2022/01/26 11:51:50;;;;;;;;;;;;;;;23.78;17.58;101241.84;5058309;28;1298;-42
2022/01/26 11:54:17;;;;;;;;;;;;;;;23.87;17.20;101238.28;5059026;28;813;-42
2022/01/26 11:57:01;;;;;;;;;;;;;;;23.85;17.21;101233.06;5056185;28;2044;-42
2022/01/26 11:59:27;;;;;;;;;;;;;;;23.90;17.27;101231.75;5055898;28;773;-42
2022/01/26 12:02:07;;;;;;;;;;;;;;;24.04;17.41;101231.25;5054856;28;915;-42
2022/01/26 12:04:34;;;;;;;;;;;;;;;24.05;17.46;101224.88;5055265;28;797;-42
2022/01/26 12:07:12;;;;;;;;;;;;;;;24.16;17.79;101223.84;5027177;28;1396;-42
2022/01/26 12:09:38;;;;;;;;;;;;;;;24.24;17.30;101222.25;5054404;28;1502;-42
2022/01/26 12:12:05;;;;;;;;;;;;;;;24.17;17.22;101217.47;5055162;28;1433;-42
2022/01/26 12:14:32;;;;;;;;;;;;;;;24.22;17.23;101225.09;5054643;28;1410;-42
2022/01/26 12:16:59;;;;;;;;;;;;;;;24.26;17.28;101217.53;5053854;28;1975;-42
2022/01/26 12:34:10;;;;;;;;;;;;;;;24.45;17.62;101201.28;5054965;28;1296;-42
2022/01/26 12:38:24;;;;;;;;;;;;;;;24.40;17.46;101197.38;5058346;28;784;-42
2022/01/26 12:43:55;;;;;;;;;;;;;;;24.51;17.41;101204.34;5054240;28;1335;-42
2022/01/26 12:46:22;;;;;;;;;;;;;;;24.52;17.23;101201.53;5057919;28;1425;-42
2022/01/26 12:48:48;;;;;;;;;;;;;;;24.46;17.24;101200.28;5059141;28;1331;-42
2022/01/26 12:51:14;;;;;;;;;;;;;;;24.49;17.14;101196.44;5037579;28;1427;-42
2022/01/26 12:53:40;;;;;;;;;;;;;;;24.52;17.37;101188.09;5057359;28;1184;-41
2022/01/26 12:56:06;;;;;;;;;;;;;;;24.56;17.43;101188.59;5058644;28;1960;-42
2022/01/26 12:58:33;;;;;;;;;;;;;;;24.50;17.48;101195.44;5059136;28;822;-43
2022/01/26 13:00:58;;;;;;;;;;;;;;;24.53;17.48;101196.97;5058842;28;723;-42
2022/01/26 13:03:27;;;;;;;;;;;;;;;24.51;17.62;101197.13;5062632;28;1119;-42
2022/01/26 13:05:53;;;;;;;;;;;;;;;24.58;18.14;101195.53;5058350;28;985;-42
2022/01/26 13:08:18;;;;;;;;;;;;;;;24.61;18.25;101201.59;5025107;28;1196;-43
2022/01/26 13:10:43;;;;;;;;;;;;;;;24.64;18.67;101201.28;5056767;28;833;-42
2022/01/26 13:13:13;;;;;;;;;;;;;;;24.60;18.62;101213.34;5040309;28;816;-42
2022/01/26 13:15:58;;;;;;;;;;;;;;;24.57;18.91;101211.81;5057243;28;1953;-45
2022/01/26 13:21:36;;;;;;;;;;;;;;;24.69;18.64;101202.50;5016562;28;1414;-42
2022/01/26 13:24:24;;;;;;;;;;;;;;;24.66;18.47;101201.94;5056829;28;1117;-42
2022/01/26 13:27:02;;;;;;;;;;;;;;;24.69;18.54;101207.88;5054034;28;1299;-43
2022/01/26 13:29:40;;;;;;;;;;;;;;;24.65;18.49;101217.28;5055519;28;850;-42
2022/01/26 13:37:21;;;;;;;;;;;;;;;24.63;18.68;101202.25;5057486;28;1906;-42
2022/01/26 13:40:06;;;;;;;;;;;;;;;24.63;18.68;101210.34;5055218;28;777;-42
2022/01/26 13:45:45;;;;;;;;;;;;;;;24.62;18.26;101214.03;5055538;28;1352;-42
2022/01/26 13:51:38;;;;;;;;;;;;;;;24.60;18.97;101224.94;5024944;28;1465;-42
2022/01/26 13:59:32;;;;;;;;;;;;;;;24.72;20.67;101230.09;5009941;28;1390;-43
2022/01/26 14:01:59;;;;;;;;;;;;;;;24.72;20.90;101236.31;5056956;28;1199;-42
2022/01/26 14:04:24;;;;;;;;;;;;;;;24.73;21.44;101232.63;5057105;28;1316;-43
2022/01/26 14:06:49;;;;;;;;;;;;;;;24.75;20.74;101241.41;5054290;28;1207;-43
2022/01/26 14:09:15;;;;;;;;;;;;;;;24.67;20.64;101247.53;5055827;28;1290;-42
2022/01/26 14:11:40;;;;;;;;;;;;;;;24.62;20.70;101247.16;5054735;28;1184;-43
2022/01/26 14:14:06;;;;;;;;;;;;;;;24.76;20.71;101250.28;5055837;28;1179;-41
2022/01/26 14:16:39;;;;;;;;;;;;;;;24.73;20.57;101242.53;5056437;28;1955;-40
2022/01/26 14:19:14;;;;;;;;;;;;;;;24.70;20.69;101259.84;5035593;28;1442;-38
2022/01/26 14:26:46;;;;;;;;;;;;;;;24.89;21.29;101258.81;5051977;28;844;-42
2022/01/26 14:29:21;;;;;;;;;;;;;;;24.91;21.20;101262.22;5055848;28;909;-42
2022/01/26 14:32:15;;;;;;;;;;;;;;;25.01;21.05;101258.59;5054837;28;1204;-41
2022/01/26 14:51:07;;;;;;;;;;;;;;;24.97;19.43;101260.78;5051662;28;1226;-41
2022/01/26 15:12:20;;;;;;;;;;;;;;;25.19;19.69;101267.50;5056483;28;781;-39
2022/01/26 15:32:12;;;;;;;;;;;;;;;25.15;19.79;101279.59;5056132;28;759;-40
2022/01/26 15:34:02;;;;;;;;;;;;;;;25.01;19.97;101283.69;5055429;28;1274;-40
2022/01/26 15:49:51;;;;;;;;;;;;;;;25.04;19.71;101290.59;5055703;28;691;-38
2022/01/26 15:57:57;;;;;;;;;;;;;;;24.85;19.89;101302.34;5055532;28;1961;-38
2022/01/26 16:17:31;;;;;;;;;;;;;;;24.85;19.62;101316.66;5059341;28;1902;-40
2022/01/26 16:39:19;;;;;;;;;;;;;;;24.79;19.97;101334.25;5058363;28;1362;-39
2022/01/26 17:43:16;;;;;;;;;;;;;;;24.98;20.58;101345.91;5057818;28;1902;-40
2022/01/26 18:15:53;;;;;;;;;;;;;;;24.91;20.28;101355.56;4949944;28;1898;-40
2022/01/26 18:26:32;;;;;;;;;;;;;;;25.26;19.89;101363.78;5055183;28;737;-38
2022/01/26 18:49:37;;;;;;;;;;;;;;;28.09;17.25;101377.25;5056171;28;730;-39
2022/01/26 18:52:03;;;;;;;;;;;;;;;28.41;17.25;101372.75;5055877;28;827;-40
2022/01/26 18:54:29;;;;;;;;;;;;;;;28.70;16.93;101373.97;5056062;28;1068;-39
2022/01/26 18:57:00;;;;;;;;;;;;;;;28.76;16.81;101372.38;5056588;28;1965;-39
2022/01/26 18:59:25;;;;;;;;;;;;;;;28.86;16.73;101383.00;5056162;28;817;-40
2022/01/26 19:01:55;;;;;;;;;;;;;;;29.31;16.38;101372.34;5056245;28;901;-40
2022/01/26 19:04:37;;;;;;;;;;;;;;;29.42;16.26;101367.50;5055399;28;818;-40
2022/01/26 19:07:02;;;;;;;;;;;;;;;29.68;16.10;101367.09;5040628;28;853;-41
2022/01/26 19:09:31;;;;;;;;;;;;;;;30.01;15.86;101373.22;5056395;28;937;-41
2022/01/26 19:11:57;;;;;;;;;;;;;;;30.03;15.75;101363.84;5055616;28;1167;-40
2022/01/26 19:14:26;;;;;;;;;;;;;;;30.20;15.69;101363.66;5056321;28;943;-40
2022/01/26 19:17:19;;;;;;;;;;;;;;;30.56;15.10;101372.88;5055995;28;1968;-41
2022/01/26 19:31:19;;;;;;;;;;;;;;;30.98;15.12;101367.66;5055472;28;821;-42
2022/01/26 19:33:20;;;;;;;;;;;;;;;30.92;15.01;101363.88;5054973;28;1275;-41
2022/01/26 19:46:34;;;;;;;;;;;;;;;31.42;14.76;101375.81;5055842;28;723;-39
2022/01/26 19:54:23;;;;;;;;;;;;;;;31.62;14.40;101364.22;5054904;28;1009;-40
2022/01/26 19:56:49;;;;;;;;;;;;;;;31.64;14.59;101351.28;5055416;28;1898;-40
2022/01/26 19:59:14;;;;;;;;;;;;;;;31.88;14.47;101355.38;5055584;28;873;-41
2022/01/26 20:01:40;;;;;;;;;;;;;;;32.06;14.36;101359.50;5055639;28;829;-40
2022/01/26 20:04:05;;;;;;;;;;;;;;;31.94;14.21;101363.78;5055156;28;1481;-39